createdAt,value
2022-11-26T00:06:05.892Z,37.9
2022-11-26T00:26:05.868Z,37.9
2022-11-26T00:46:05.803Z,37.9
2022-11-26T01:06:05.724Z,37.9
2022-11-26T01:26:06.632Z,37.9
2022-11-26T01:46:05.919Z,37.9
2022-11-26T02:06:05.829Z,37.91
2022-11-26T02:26:05.828Z,37.91
2022-11-26T02:46:05.959Z,37.9
2022-11-26T03:06:05.031Z,37.91
2022-11-26T03:26:05.089Z,37.91
2022-11-26T03:46:05.921Z,37.91
2022-11-26T04:06:05.794Z,37.91
2022-11-26T05:26:05.001Z,37.91
2022-11-26T05:46:05.856Z,37.92
2022-11-26T06:06:05.755Z,37.92
2022-11-26T06:26:05.743Z,37.92
2022-11-26T06:46:05.808Z,37.91
2022-11-26T07:06:05.752Z,37.92
2022-11-26T07:46:05.754Z,37.92
2022-11-26T08:06:05.775Z,37.92
2022-11-26T08:26:21.842Z,37.92
2022-11-26T08:46:05.703Z,37.93
2022-11-26T09:06:04.906Z,37.92
2022-11-26T09:26:04.877Z,37.92
2022-11-26T09:46:05.687Z,37.91
2022-11-26T10:06:05.628Z,37.9
2022-11-26T10:26:05.592Z,37.9
2022-11-26T10:46:05.078Z,37.91
2022-11-26T11:06:05.532Z,37.92
2022-11-26T11:26:05.514Z,37.92
2022-11-26T11:46:05.560Z,37.93
2022-11-26T12:06:05.469Z,37.93
2022-11-26T12:26:05.433Z,37.94
2022-11-26T12:46:05.477Z,37.93
2022-11-26T13:06:05.395Z,37.94
2022-11-26T13:26:04.237Z,37.94
2022-11-26T13:46:05.402Z,37.93
2022-11-26T14:06:07.959Z,37.94
2022-11-26T14:26:05.302Z,37.94
2022-11-26T14:46:05.323Z,37.93
2022-11-26T15:06:05.295Z,37.94
2022-11-26T15:26:05.263Z,37.94
2022-11-26T15:46:05.290Z,37.94
2022-11-26T16:06:05.211Z,37.95
2022-11-26T16:26:05.192Z,37.95
2022-11-26T16:46:05.202Z,37.94
2022-11-26T17:06:05.167Z,37.95
2022-11-26T17:46:05.155Z,37.95
2022-11-26T18:06:05.167Z,37.95
2022-11-26T18:26:04.970Z,37.95
2022-11-26T18:46:05.126Z,37.95
2022-11-26T19:06:05.082Z,37.95
2022-11-26T19:26:05.075Z,37.95
2022-11-26T19:46:05.128Z,37.95
2022-11-26T20:06:04.530Z,37.95
2022-11-26T20:26:05.036Z,37.95
2022-11-26T20:46:04.581Z,37.96
2022-11-26T21:06:05.025Z,37.96
2022-11-26T21:26:05.019Z,37.96
2022-11-26T21:46:04.943Z,37.96
2022-11-26T22:06:04.997Z,37.96
2022-11-26T22:26:04.982Z,37.97
2022-11-26T22:46:05.031Z,37.97
2022-11-26T23:06:04.965Z,37.97
2022-11-26T23:26:04.955Z,37.96
2022-11-26T23:46:05.040Z,37.97
